Time;durP1;ratioP1;P1;durP2;ratioP2;P2;SDS_P1;SDS_P2;PMS_P1;PMS_P2;Temp;Humidity;BMP_temperature;BMP_pressure;BME280_temperature;BME280_humidity;BME280_pressure;Samples;Min_cycle;Max_cycle;Signal;HPM_P1;HPM_P2
2023/09/04 00:00:08;;;;;;;7.78;5.40;;;;;;;;;;475898;28;1509;-71
2023/09/04 00:00:23;;;;;;;8.55;5.63;;;;;;;;;;475692;28;1265;-72
2023/09/04 00:00:38;;;;;;;8.07;5.73;;;;;;;;;;475629;28;1122;-71
2023/09/04 00:00:57;;;;;;;7.07;5.67;;;;;;;;;;475992;28;1248;-71
2023/09/04 00:01:12;;;;;;;7.15;5.57;;;;;;;;;;476124;28;1264;-71
2023/09/04 00:01:27;;;;;;;7.80;5.70;;;;;;;;;;474679;28;1334;-71
2023/09/04 00:01:43;;;;;;;8.07;5.70;;;;;;;;;;474354;28;1283;-71
2023/09/04 00:01:58;;;;;;;8.68;5.53;;;;;;;;;;479734;28;1587;-71
2023/09/04 00:02:13;;;;;;;7.73;5.30;;;;;;;;;;479764;28;880;-71
2023/09/04 00:02:29;;;;;;;6.30;5.40;;;;;;;;;;481715;28;1085;-71
2023/09/04 00:02:44;;;;;;;6.90;5.50;;;;;;;;;;481466;28;900;-71
2023/09/04 00:03:00;;;;;;;7.77;5.40;;;;;;;;;;481249;28;993;-71
2023/09/04 00:03:15;;;;;;;7.82;5.68;;;;;;;;;;477648;28;1259;-71
2023/09/04 00:03:31;;;;;;;7.37;5.70;;;;;;;;;;471503;28;1081;-71
2023/09/04 00:03:46;;;;;;;7.60;5.60;;;;;;;;;;472835;28;1008;-71
2023/09/04 00:04:03;;;;;;;7.30;5.87;;;;;;;;;;471464;28;1169;-71
2023/09/04 00:04:20;;;;;;;6.72;5.85;;;;;;;;;;469040;29;1205;-71
2023/09/04 00:04:36;;;;;;;8.60;5.75;;;;;;;;;;476927;28;1098;-71
2023/09/04 00:04:52;;;;;;;8.65;5.55;;;;;;;;;;476486;28;995;-71
2023/09/04 00:05:07;;;;;;;7.33;5.60;;;;;;;;;;477770;28;1471;-71
2023/09/04 00:05:22;;;;;;;7.53;5.50;;;;;;;;;;477421;28;1257;-71
2023/09/04 00:05:38;;;;;;;8.20;5.60;;;;;;;;;;479604;28;1201;-72
2023/09/04 00:05:54;;;;;;;9.48;5.93;;;;;;;;;;478743;28;1069;-71
2023/09/04 00:06:09;;;;;;;7.97;5.78;;;;;;;;;;477378;28;978;-71
2023/09/04 00:06:25;;;;;;;5.80;5.20;;;;;;;;;;478970;28;1034;-71
2023/09/04 00:06:41;;;;;;;5.88;5.28;;;;;;;;;;478617;28;1017;-71
2023/09/04 00:06:56;;;;;;;6.28;5.43;;;;;;;;;;477244;28;939;-71
2023/09/04 00:07:12;;;;;;;7.13;5.30;;;;;;;;;;477712;28;1102;-71
2023/09/04 00:07:27;;;;;;;7.37;5.50;;;;;;;;;;476100;28;1235;-71
2023/09/04 00:07:42;;;;;;;8.48;5.90;;;;;;;;;;477653;28;1180;-71
2023/09/04 00:07:58;;;;;;;8.73;6.00;;;;;;;;;;479674;28;960;-71
2023/09/04 00:08:13;;;;;;;7.80;5.80;;;;;;;;;;479479;28;1041;-71
2023/09/04 00:08:29;;;;;;;8.00;5.70;;;;;;;;;;479307;28;1152;-71
2023/09/04 00:08:44;;;;;;;8.02;5.85;;;;;;;;;;479446;28;1026;-71
2023/09/04 00:09:00;;;;;;;7.73;5.80;;;;;;;;;;478911;28;1029;-71
2023/09/04 00:09:15;;;;;;;6.75;5.43;;;;;;;;;;478084;28;1457;-71
2023/09/04 00:09:31;;;;;;;7.57;5.60;;;;;;;;;;477639;28;1223;-71
2023/09/04 00:09:46;;;;;;;8.30;5.87;;;;;;;;;;476348;28;2358;-71
2023/09/04 00:10:03;;;;;;;7.30;5.88;;;;;;;;;;476570;28;1158;-71
2023/09/04 00:10:19;;;;;;;7.60;5.85;;;;;;;;;;475491;28;967;-71
2023/09/04 00:10:34;;;;;;;7.47;5.63;;;;;;;;;;476083;28;1192;-72
2023/09/04 00:10:49;;;;;;;7.45;5.50;;;;;;;;;;476133;28;1033;-71
2023/09/04 00:11:04;;;;;;;6.47;5.40;;;;;;;;;;477051;28;1121;-71
2023/09/04 00:11:20;;;;;;;7.67;5.40;;;;;;;;;;477721;28;891;-71
2023/09/04 00:11:35;;;;;;;8.18;5.75;;;;;;;;;;477214;28;1324;-71
2023/09/04 00:11:50;;;;;;;9.23;5.80;;;;;;;;;;476636;28;1272;-72
2023/09/04 00:12:06;;;;;;;9.07;5.80;;;;;;;;;;475604;28;1093;-71
2023/09/04 00:12:21;;;;;;;6.90;5.75;;;;;;;;;;467263;28;1168;-71
2023/09/04 00:12:37;;;;;;;6.97;5.80;;;;;;;;;;479369;28;989;-71
2023/09/04 00:12:52;;;;;;;6.97;5.80;;;;;;;;;;476767;28;1177;-71
2023/09/04 00:13:08;;;;;;;6.20;5.47;;;;;;;;;;475945;28;1311;-71
2023/09/04 00:13:23;;;;;;;6.37;5.10;;;;;;;;;;477697;28;1296;-71
2023/09/04 00:13:40;;;;;;;7.35;5.10;;;;;;;;;;476967;28;1208;-71
2023/09/04 00:13:55;;;;;;;8.00;5.40;;;;;;;;;;476909;28;1013;-71
2023/09/04 00:14:11;;;;;;;7.60;5.60;;;;;;;;;;475898;28;1059;-71
2023/09/04 00:14:27;;;;;;;7.50;5.80;;;;;;;;;;475873;28;1236;-71
2023/09/04 00:14:42;;;;;;;9.30;5.82;;;;;;;;;;479343;28;1371;-71
2023/09/04 00:14:58;;;;;;;10.10;5.83;;;;;;;;;;480463;28;1521;-71
2023/09/04 00:15:13;;;;;;;8.67;5.60;;;;;;;;;;481530;28;865;-71
2023/09/04 00:15:28;;;;;;;7.80;5.47;;;;;;;;;;479880;28;1683;-71
2023/09/04 00:15:44;;;;;;;7.37;5.50;;;;;;;;;;479654;28;1105;-71
2023/09/04 00:15:59;;;;;;;7.47;5.47;;;;;;;;;;480888;28;1245;-71
2023/09/04 00:16:15;;;;;;;8.20;5.63;;;;;;;;;;479401;28;1113;-71
2023/09/04 00:16:30;;;;;;;7.73;5.80;;;;;;;;;;479720;28;1055;-71
2023/09/04 00:16:45;;;;;;;6.78;5.60;;;;;;;;;;479181;28;987;-72
2023/09/04 00:17:01;;;;;;;7.13;5.67;;;;;;;;;;479189;28;1439;-71
2023/09/04 00:17:18;;;;;;;8.27;5.70;;;;;;;;;;478067;28;1266;-71
2023/09/04 00:17:34;;;;;;;7.90;5.68;;;;;;;;;;481171;28;1091;-71
2023/09/04 00:17:50;;;;;;;7.22;5.82;;;;;;;;;;479349;28;1124;-71
2023/09/04 00:18:07;;;;;;;6.87;5.80;;;;;;;;;;481168;28;1158;-71
2023/09/04 00:18:23;;;;;;;7.15;5.60;;;;;;;;;;480775;28;1292;-71
2023/09/04 00:18:38;;;;;;;8.18;5.60;;;;;;;;;;473271;28;995;-71
2023/09/04 00:18:53;;;;;;;8.60;5.75;;;;;;;;;;471207;28;1287;-71
2023/09/04 00:19:09;;;;;;;7.43;5.67;;;;;;;;;;471786;28;1163;-71
2023/09/04 00:19:24;;;;;;;6.60;5.60;;;;;;;;;;471885;28;908;-71
2023/09/04 00:19:39;;;;;;;7.63;5.75;;;;;;;;;;472429;28;1302;-71
2023/09/04 00:19:55;;;;;;;7.10;5.60;;;;;;;;;;472628;28;1193;-71
2023/09/04 00:20:12;;;;;;;7.00;5.40;;;;;;;;;;477475;28;912;-70
2023/09/04 00:20:28;;;;;;;8.40;5.43;;;;;;;;;;482314;28;1146;-71
2023/09/04 00:20:43;;;;;;;6.90;5.40;;;;;;;;;;481482;28;1153;-71
2023/09/04 00:20:58;;;;;;;5.78;5.15;;;;;;;;;;483469;28;1234;-71
2023/09/04 00:21:14;;;;;;;5.53;4.80;;;;;;;;;;482314;28;1183;-71
2023/09/04 00:21:29;;;;;;;6.53;5.05;;;;;;;;;;482181;28;1491;-71
2023/09/04 00:21:45;;;;;;;8.27;5.57;;;;;;;;;;481084;28;1275;-71
2023/09/04 00:22:00;;;;;;;8.63;5.97;;;;;;;;;;480379;28;1089;-71
2023/09/04 00:22:15;;;;;;;7.45;6.05;;;;;;;;;;483103;28;1309;-71
2023/09/04 00:22:31;;;;;;;6.20;5.50;;;;;;;;;;476045;28;1290;-71
2023/09/04 00:22:46;;;;;;;6.70;5.40;;;;;;;;;;475670;28;1281;-71
2023/09/04 00:23:02;;;;;;;7.18;5.45;;;;;;;;;;475438;28;1089;-71
2023/09/04 00:23:18;;;;;;;6.03;5.10;;;;;;;;;;476929;28;1054;-71
2023/09/04 00:23:33;;;;;;;5.40;4.87;;;;;;;;;;480568;28;1418;-71
2023/09/04 00:23:48;;;;;;;6.32;5.00;;;;;;;;;;480138;28;1251;-71
2023/09/04 00:24:04;;;;;;;7.27;5.37;;;;;;;;;;478556;28;920;-71
2023/09/04 00:24:22;;;;;;;5.93;4.93;;;;;;;;;;478220;28;1301;-71
2023/09/04 00:24:37;;;;;;;5.60;4.90;;;;;;;;;;480183;28;1021;-71
2023/09/04 00:24:53;;;;;;;6.50;5.28;;;;;;;;;;479923;28;1256;-71
2023/09/04 00:25:09;;;;;;;7.13;5.23;;;;;;;;;;479682;28;915;-71
2023/09/04 00:25:24;;;;;;;7.75;5.38;;;;;;;;;;479860;28;1050;-71
2023/09/04 00:25:40;;;;;;;7.45;5.22;;;;;;;;;;480855;28;1011;-70
2023/09/04 00:25:55;;;;;;;6.80;5.20;;;;;;;;;;480851;28;1206;-71
2023/09/04 00:26:11;;;;;;;7.18;5.25;;;;;;;;;;479582;28;1107;-71
2023/09/04 00:26:27;;;;;;;7.50;5.03;;;;;;;;;;476477;28;1347;-71
2023/09/04 00:26:42;;;;;;;6.37;5.23;;;;;;;;;;479837;28;1294;-71
2023/09/04 00:26:58;;;;;;;6.05;5.32;;;;;;;;;;481111;28;959;-71
2023/09/04 00:27:13;;;;;;;6.83;5.20;;;;;;;;;;482366;28;967;-71
2023/09/04 00:27:28;;;;;;;7.63;5.45;;;;;;;;;;481900;28;1278;-71
2023/09/04 00:27:44;;;;;;;7.40;5.60;;;;;;;;;;482546;28;1373;-71
2023/09/04 00:27:59;;;;;;;6.83;5.30;;;;;;;;;;481409;28;1194;-71
2023/09/04 00:28:18;;;;;;;6.25;5.20;;;;;;;;;;482160;28;1090;-71
2023/09/04 00:28:34;;;;;;;8.02;5.38;;;;;;;;;;481850;28;941;-71
2023/09/04 00:28:50;;;;;;;8.60;5.57;;;;;;;;;;481434;28;1148;-71
2023/09/04 00:29:05;;;;;;;6.90;5.40;;;;;;;;;;481790;28;1212;-71
2023/09/04 00:29:20;;;;;;;7.35;5.60;;;;;;;;;;482163;28;1183;-71
2023/09/04 00:29:36;;;;;;;8.60;5.77;;;;;;;;;;485412;28;1287;-71
2023/09/04 00:29:51;;;;;;;7.87;5.50;;;;;;;;;;485424;28;1953;-71
2023/09/04 00:30:07;;;;;;;7.22;5.53;;;;;;;;;;483572;28;1134;-71
2023/09/04 00:30:23;;;;;;;6.85;5.38;;;;;;;;;;484162;28;934;-71
2023/09/04 00:30:39;;;;;;;6.50;5.40;;;;;;;;;;483278;28;1082;-71
2023/09/04 00:30:56;;;;;;;6.00;5.40;;;;;;;;;;485614;28;1076;-71
2023/09/04 00:31:11;;;;;;;6.22;5.40;;;;;;;;;;486360;28;1239;-71
2023/09/04 00:31:27;;;;;;;7.97;5.57;;;;;;;;;;484809;28;1072;-71
2023/09/04 00:31:42;;;;;;;7.60;5.27;;;;;;;;;;485162;28;1062;-71
2023/09/04 00:31:57;;;;;;;5.88;4.97;;;;;;;;;;484922;28;931;-71
2023/09/04 00:32:13;;;;;;;5.43;4.83;;;;;;;;;;486247;28;1214;-71
2023/09/04 00:32:28;;;;;;;5.90;5.00;;;;;;;;;;485449;28;1140;-71
2023/09/04 00:32:43;;;;;;;6.75;5.38;;;;;;;;;;484969;28;1192;-71
2023/09/04 00:32:59;;;;;;;7.03;5.50;;;;;;;;;;484599;28;1027;-71
2023/09/04 00:33:14;;;;;;;7.27;5.67;;;;;;;;;;484117;28;1152;-71
2023/09/04 00:33:30;;;;;;;9.20;5.97;;;;;;;;;;481816;28;1252;-71
2023/09/04 00:33:45;;;;;;;8.30;5.80;;;;;;;;;;479199;28;1287;-71
2023/09/04 00:34:01;;;;;;;6.20;5.50;;;;;;;;;;481301;28;1280;-71
2023/09/04 00:34:16;;;;;;;7.03;5.50;;;;;;;;;;482042;28;1352;-70
2023/09/04 00:34:32;;;;;;;7.67;5.63;;;;;;;;;;482387;28;922;-71
2023/09/04 00:34:47;;;;;;;7.32;5.53;;;;;;;;;;479633;28;1639;-71
2023/09/04 00:35:03;;;;;;;6.95;5.45;;;;;;;;;;479994;28;1014;-71
2023/09/04 00:35:19;;;;;;;7.17;5.63;;;;;;;;;;480479;28;1079;-71
2023/09/04 00:35:35;;;;;;;7.85;5.57;;;;;;;;;;481635;28;920;-71
2023/09/04 00:35:50;;;;;;;9.00;5.68;;;;;;;;;;479106;28;1219;-71
2023/09/04 00:36:05;;;;;;;8.57;5.90;;;;;;;;;;478829;28;1187;-71
2023/09/04 00:36:21;;;;;;;6.05;5.45;;;;;;;;;;479490;28;1107;-71
2023/09/04 00:36:36;;;;;;;6.03;5.27;;;;;;;;;;482350;28;1006;-71
2023/09/04 00:36:52;;;;;;;7.67;5.33;;;;;;;;;;482560;28;1080;-71
2023/09/04 00:37:09;;;;;;;7.82;5.22;;;;;;;;;;482160;28;1159;-71
2023/09/04 00:37:25;;;;;;;6.63;5.05;;;;;;;;;;481902;28;1113;-71
2023/09/04 00:37:43;;;;;;;7.07;5.23;;;;;;;;;;482045;28;1091;-71
2023/09/04 00:37:58;;;;;;;6.93;5.45;;;;;;;;;;482069;28;1063;-71
2023/09/04 00:38:14;;;;;;;6.13;5.47;;;;;;;;;;482446;28;1120;-72
2023/09/04 00:38:29;;;;;;;6.90;5.47;;;;;;;;;;483280;28;1106;-71
2023/09/04 00:38:45;;;;;;;7.07;5.33;;;;;;;;;;483122;28;997;-71
2023/09/04 00:39:00;;;;;;;6.32;5.22;;;;;;;;;;484507;28;1150;-71
2023/09/04 00:39:17;;;;;;;6.93;5.10;;;;;;;;;;483849;28;1175;-71
2023/09/04 00:39:32;;;;;;;6.80;4.90;;;;;;;;;;484751;28;916;-71
2023/09/04 00:39:48;;;;;;;6.47;4.90;;;;;;;;;;482557;28;1172;-71
2023/09/04 00:40:05;;;;;;;7.07;5.10;;;;;;;;;;479248;28;1188;-71
2023/09/04 00:40:21;;;;;;;5.95;5.00;;;;;;;;;;480096;28;1133;-71
2023/09/04 00:40:38;;;;;;;6.53;5.13;;;;;;;;;;472566;28;1061;-71
2023/09/04 00:40:53;;;;;;;6.80;5.05;;;;;;;;;;472749;29;1077;-71
2023/09/04 00:41:09;;;;;;;6.72;5.13;;;;;;;;;;482570;28;1275;-71
2023/09/04 00:41:24;;;;;;;7.40;5.07;;;;;;;;;;482382;28;1255;-71
2023/09/04 00:41:41;;;;;;;6.63;4.73;;;;;;;;;;482900;28;970;-71
2023/09/04 00:41:56;;;;;;;6.25;4.70;;;;;;;;;;482403;28;1036;-71
2023/09/04 00:42:15;;;;;;;6.18;4.85;;;;;;;;;;481711;28;1141;-71
2023/09/04 00:42:30;;;;;;;5.35;4.75;;;;;;;;;;482363;28;946;-71
2023/09/04 00:42:45;;;;;;;6.43;4.60;;;;;;;;;;482998;28;912;-71
2023/09/04 00:43:01;;;;;;;6.72;4.65;;;;;;;;;;483798;28;1330;-71
2023/09/04 00:43:16;;;;;;;5.53;4.60;;;;;;;;;;483497;28;1119;-71
2023/09/04 00:43:38;;;;;;;5.57;4.60;;;;;;;;;;484653;28;1217;-71
2023/09/04 00:43:54;;;;;;;6.45;4.55;;;;;;;;;;484261;28;896;-71
2023/09/04 00:44:09;;;;;;;6.77;4.63;;;;;;;;;;483536;28;1137;-71
2023/09/04 00:44:25;;;;;;;6.03;4.67;;;;;;;;;;480258;28;1054;-71
2023/09/04 00:44:43;;;;;;;6.30;4.60;;;;;;;;;;475933;28;1262;-71
2023/09/04 00:44:58;;;;;;;5.28;4.05;;;;;;;;;;478376;28;1006;-71
2023/09/04 00:45:14;;;;;;;5.20;4.10;;;;;;;;;;478568;28;1061;-71
2023/09/04 00:45:29;;;;;;;5.78;4.57;;;;;;;;;;480922;28;1188;-71
2023/09/04 00:45:46;;;;;;;5.97;4.80;;;;;;;;;;478902;28;1362;-71
2023/09/04 00:46:03;;;;;;;6.55;4.60;;;;;;;;;;479604;28;1058;-71
2023/09/04 00:46:18;;;;;;;6.25;4.30;;;;;;;;;;480053;28;922;-71
2023/09/04 00:46:34;;;;;;;5.85;4.50;;;;;;;;;;482211;28;1070;-71
2023/09/04 00:46:49;;;;;;;5.80;4.63;;;;;;;;;;480172;28;1236;-71
2023/09/04 00:47:05;;;;;;;6.10;4.30;;;;;;;;;;480741;28;989;-71
2023/09/04 00:47:23;;;;;;;6.50;4.37;;;;;;;;;;481613;28;1368;-71
2023/09/04 00:47:40;;;;;;;5.80;4.60;;;;;;;;;;481446;28;1468;-71
2023/09/04 00:47:56;;;;;;;5.75;4.70;;;;;;;;;;482090;28;1029;-71
2023/09/04 00:48:12;;;;;;;6.73;4.70;;;;;;;;;;481966;28;1164;-71
2023/09/04 00:48:27;;;;;;;8.20;4.60;;;;;;;;;;482158;28;959;-71
2023/09/04 00:48:43;;;;;;;7.50;4.80;;;;;;;;;;483230;28;1338;-71
2023/09/04 00:48:59;;;;;;;6.87;4.67;;;;;;;;;;480913;28;1178;-71
2023/09/04 00:49:15;;;;;;;6.75;4.45;;;;;;;;;;482296;28;1130;-71
2023/09/04 00:49:31;;;;;;;6.67;4.53;;;;;;;;;;484797;28;1136;-71
2023/09/04 00:49:47;;;;;;;6.68;4.57;;;;;;;;;;484345;28;1929;-71
2023/09/04 00:50:02;;;;;;;5.72;4.45;;;;;;;;;;484943;28;1110;-71
2023/09/04 00:50:22;;;;;;;7.10;4.63;;;;;;;;;;485084;28;1088;-71
2023/09/04 00:50:40;;;;;;;7.72;4.60;;;;;;;;;;485844;28;1042;-71
2023/09/04 00:50:56;;;;;;;6.05;4.65;;;;;;;;;;481537;28;975;-71
2023/09/04 00:51:12;;;;;;;5.50;4.70;;;;;;;;;;482220;28;1082;-71
2023/09/04 00:51:27;;;;;;;5.82;4.72;;;;;;;;;;482232;28;1157;-71
2023/09/04 00:51:44;;;;;;;5.63;4.67;;;;;;;;;;483926;28;1138;-71
2023/09/04 00:52:01;;;;;;;6.32;4.70;;;;;;;;;;484986;28;1009;-71
2023/09/04 00:52:16;;;;;;;6.35;4.60;;;;;;;;;;483899;28;1173;-72
2023/09/04 00:52:32;;;;;;;6.10;4.50;;;;;;;;;;484143;28;919;-71
2023/09/04 00:52:50;;;;;;;5.38;4.70;;;;;;;;;;484187;28;989;-71
2023/09/04 00:53:06;;;;;;;5.97;4.90;;;;;;;;;;483977;28;1141;-71
2023/09/04 00:53:22;;;;;;;7.00;5.10;;;;;;;;;;484310;28;1090;-71
2023/09/04 00:53:38;;;;;;;7.38;5.13;;;;;;;;;;484356;28;911;-71
2023/09/04 00:53:53;;;;;;;6.55;4.95;;;;;;;;;;483201;28;1056;-71
2023/09/04 00:54:10;;;;;;;6.47;4.90;;;;;;;;;;484065;28;1268;-71
2023/09/04 00:54:28;;;;;;;6.18;4.95;;;;;;;;;;485538;28;1279;-71
2023/09/04 00:54:43;;;;;;;5.50;4.90;;;;;;;;;;483152;28;1680;-71
2023/09/04 00:55:00;;;;;;;5.70;5.00;;;;;;;;;;483774;28;1120;-71
2023/09/04 00:55:16;;;;;;;6.38;5.05;;;;;;;;;;482897;28;999;-71
2023/09/04 00:55:31;;;;;;;6.45;4.85;;;;;;;;;;482613;28;1094;-71
2023/09/04 00:55:48;;;;;;;7.17;4.83;;;;;;;;;;484670;28;1082;-71
2023/09/04 00:56:05;;;;;;;7.25;4.95;;;;;;;;;;482186;28;1148;-71
2023/09/04 00:56:22;;;;;;;5.22;4.57;;;;;;;;;;482937;28;1053;-71
2023/09/04 00:56:38;;;;;;;6.10;4.55;;;;;;;;;;484752;28;950;-71
2023/09/04 00:56:54;;;;;;;6.35;4.82;;;;;;;;;;481696;28;1155;-71
2023/09/04 00:57:12;;;;;;;6.67;5.10;;;;;;;;;;481589;28;1101;-71
2023/09/04 00:57:27;;;;;;;6.47;5.13;;;;;;;;;;482460;28;1054;-71
2023/09/04 00:57:43;;;;;;;6.53;5.00;;;;;;;;;;480873;28;932;-71
2023/09/04 00:57:59;;;;;;;6.15;4.80;;;;;;;;;;481768;28;1037;-71
2023/09/04 00:58:14;;;;;;;5.53;4.88;;;;;;;;;;482110;28;1160;-71
2023/09/04 00:58:30;;;;;;;6.00;5.00;;;;;;;;;;483494;28;1268;-71
2023/09/04 00:58:45;;;;;;;6.38;4.80;;;;;;;;;;485020;28;943;-71
2023/09/04 00:59:01;;;;;;;7.10;4.90;;;;;;;;;;484041;28;1018;-71
2023/09/04 00:59:16;;;;;;;6.50;4.97;;;;;;;;;;483269;28;1214;-71
2023/09/04 00:59:32;;;;;;;6.00;4.95;;;;;;;;;;484183;28;1191;-72
2023/09/04 00:59:47;;;;;;;5.85;4.82;;;;;;;;;;484206;28;1234;-71
2023/09/04 01:00:12;;;;;;;5.90;4.83;;;;;;;;;;483291;28;1140;-71
2023/09/04 01:00:28;;;;;;;7.40;5.10;;;;;;;;;;483006;28;1756;-71
2023/09/04 01:00:44;;;;;;;6.45;4.78;;;;;;;;;;483498;28;1053;-70
2023/09/04 01:01:01;;;;;;;5.72;4.78;;;;;;;;;;483202;28;1083;-71
2023/09/04 01:01:18;;;;;;;5.50;4.85;;;;;;;;;;485401;28;1092;-71
2023/09/04 01:01:33;;;;;;;5.80;4.80;;;;;;;;;;492218;22;2710;-71
2023/09/04 01:01:48;;;;;;;6.60;4.90;;;;;;;;;;480802;28;924;-71
2023/09/04 01:02:04;;;;;;;6.50;5.00;;;;;;;;;;480950;28;939;-71
2023/09/04 01:02:19;;;;;;;6.90;5.18;;;;;;;;;;479548;28;1227;-71
2023/09/04 01:02:35;;;;;;;6.77;5.10;;;;;;;;;;472398;28;1299;-71
2023/09/04 01:02:51;;;;;;;6.65;5.10;;;;;;;;;;472733;29;905;-71
2023/09/04 01:03:07;;;;;;;7.13;5.23;;;;;;;;;;474106;29;927;-71
2023/09/04 01:03:24;;;;;;;7.50;5.10;;;;;;;;;;474441;28;1314;-71
2023/09/04 01:03:39;;;;;;;7.25;4.85;;;;;;;;;;472629;28;1074;-71
2023/09/04 01:03:54;;;;;;;6.90;4.90;;;;;;;;;;471417;29;902;-71
2023/09/04 01:04:10;;;;;;;6.23;4.97;;;;;;;;;;471439;29;901;-71
2023/09/04 01:04:26;;;;;;;6.43;5.22;;;;;;;;;;471404;28;1374;-71
2023/09/04 01:04:41;;;;;;;6.95;5.25;;;;;;;;;;471156;29;1093;-71
2023/09/04 01:04:57;;;;;;;6.30;4.87;;;;;;;;;;470918;29;1046;-71
2023/09/04 01:05:13;;;;;;;5.90;4.97;;;;;;;;;;471132;29;1209;-71
2023/09/04 01:05:31;;;;;;;5.68;4.93;;;;;;;;;;471991;29;1194;-71
2023/09/04 01:05:49;;;;;;;6.03;5.03;;;;;;;;;;471123;28;1143;-71
2023/09/04 01:06:07;;;;;;;8.88;5.28;;;;;;;;;;468184;28;1163;-71
2023/09/04 01:06:24;;;;;;;7.80;5.13;;;;;;;;;;468074;28;1142;-71
2023/09/04 01:06:39;;;;;;;5.93;4.90;;;;;;;;;;468121;29;1027;-71
2023/09/04 01:06:57;;;;;;;5.67;4.97;;;;;;;;;;471274;28;1399;-71
2023/09/04 01:07:12;;;;;;;6.38;5.18;;;;;;;;;;468789;28;1204;-71
2023/09/04 01:07:30;;;;;;;5.87;5.00;;;;;;;;;;466623;29;1056;-71
2023/09/04 01:07:46;;;;;;;5.60;5.10;;;;;;;;;;468137;28;1669;-71
2023/09/04 01:08:03;;;;;;;5.72;5.10;;;;;;;;;;470350;28;1135;-71
2023/09/04 01:08:18;;;;;;;6.40;5.13;;;;;;;;;;472761;28;1277;-71
2023/09/04 01:08:36;;;;;;;6.10;5.13;;;;;;;;;;469906;29;1215;-71
2023/09/04 01:08:52;;;;;;;6.68;4.95;;;;;;;;;;471173;29;990;-71
2023/09/04 01:09:08;;;;;;;8.27;5.23;;;;;;;;;;472435;29;916;-71
2023/09/04 01:09:25;;;;;;;7.18;5.40;;;;;;;;;;474178;29;1241;-71
2023/09/04 01:09:42;;;;;;;6.53;5.40;;;;;;;;;;472621;29;1168;-71
2023/09/04 01:09:58;;;;;;;6.00;5.30;;;;;;;;;;471547;29;1429;-71
2023/09/04 01:10:14;;;;;;;6.00;5.40;;;;;;;;;;470857;29;1256;-71
2023/09/04 01:10:46;;;;;;;6.35;5.35;;;;;;;;;;480076;28;1380;-71
2023/09/04 01:11:40;;;;;;;6.90;5.45;;;;;;;;;;480979;28;1194;-71
2023/09/04 01:12:01;;;;;;;7.78;5.50;;;;;;;;;;481039;28;1266;-71
2023/09/04 01:12:22;;;;;;;6.85;5.20;;;;;;;;;;482125;28;970;-71
2023/09/04 01:12:50;;;;;;;7.72;5.57;;;;;;;;;;474002;29;943;-71
2023/09/04 01:13:29;;;;;;;7.43;5.50;;;;;;;;;;474197;29;1069;-71
2023/09/04 01:13:52;;;;;;;6.07;5.35;;;;;;;;;;479237;28;1261;-71
2023/09/04 01:14:13;;;;;;;6.65;5.30;;;;;;;;;;472062;28;1489;-71
2023/09/04 01:14:29;;;;;;;7.28;5.30;;;;;;;;;;469099;29;1113;-71
2023/09/04 01:14:46;;;;;;;6.10;5.10;;;;;;;;;;467715;29;1233;-71
2023/09/04 01:15:03;;;;;;;6.53;5.28;;;;;;;;;;470834;29;933;-71
2023/09/04 01:15:18;;;;;;;6.68;5.53;;;;;;;;;;470538;29;1637;-71
2023/09/04 01:15:34;;;;;;;7.07;5.35;;;;;;;;;;470529;29;1106;-71
2023/09/04 01:15:51;;;;;;;7.43;5.38;;;;;;;;;;471511;29;1212;-71
2023/09/04 01:16:07;;;;;;;8.02;5.47;;;;;;;;;;472923;29;1356;-71
2023/09/04 01:16:23;;;;;;;7.60;5.18;;;;;;;;;;470794;29;1324;-71
2023/09/04 01:16:39;;;;;;;6.72;5.20;;;;;;;;;;471520;29;996;-71
2023/09/04 01:16:55;;;;;;;7.47;5.45;;;;;;;;;;472621;29;975;-71
2023/09/04 01:17:12;;;;;;;6.90;5.22;;;;;;;;;;469213;29;1169;-71
2023/09/04 01:17:29;;;;;;;6.45;4.97;;;;;;;;;;468345;29;1356;-71
2023/09/04 01:17:46;;;;;;;8.60;5.22;;;;;;;;;;469941;29;1036;-71
2023/09/04 01:18:02;;;;;;;8.75;5.38;;;;;;;;;;469351;29;996;-71
2023/09/04 01:18:18;;;;;;;7.88;5.10;;;;;;;;;;472204;29;994;-71
2023/09/04 01:18:34;;;;;;;6.47;4.90;;;;;;;;;;474282;28;1278;-71
2023/09/04 01:18:50;;;;;;;7.72;5.38;;;;;;;;;;473193;29;1421;-71
2023/09/04 01:19:10;;;;;;;8.63;5.50;;;;;;;;;;471921;29;1250;-71
2023/09/04 01:19:26;;;;;;;6.70;5.10;;;;;;;;;;472544;29;1114;-71
2023/09/04 01:19:42;;;;;;;6.53;5.37;;;;;;;;;;472576;29;1049;-71
2023/09/04 01:19:57;;;;;;;6.78;5.50;;;;;;;;;;472153;29;921;-71
2023/09/04 01:20:27;;;;;;;7.00;5.30;;;;;;;;;;473151;29;1169;-71
2023/09/04 01:20:42;;;;;;;6.15;5.30;;;;;;;;;;473569;29;1129;-71
2023/09/04 01:21:05;;;;;;;6.80;5.37;;;;;;;;;;474959;29;1054;-71
2023/09/04 01:21:20;;;;;;;5.72;5.03;;;;;;;;;;474488;29;892;-71
2023/09/04 01:21:39;;;;;;;6.30;4.90;;;;;;;;;;473692;28;1087;-70
2023/09/04 01:21:54;;;;;;;6.13;4.82;;;;;;;;;;472182;28;1288;-71
2023/09/04 01:22:10;;;;;;;6.07;5.00;;;;;;;;;;472213;28;1221;-71
2023/09/04 01:22:26;;;;;;;6.87;5.10;;;;;;;;;;471655;28;1286;-71
2023/09/04 01:22:41;;;;;;;6.90;4.97;;;;;;;;;;468798;28;1410;-71
2023/09/04 01:22:57;;;;;;;6.55;4.97;;;;;;;;;;468922;29;1311;-71
2023/09/04 01:23:13;;;;;;;6.30;5.20;;;;;;;;;;469597;29;1071;-72
2023/09/04 01:23:28;;;;;;;6.73;5.00;;;;;;;;;;467974;29;975;-71
2023/09/04 01:23:43;;;;;;;6.82;4.93;;;;;;;;;;469738;29;1343;-71
2023/09/04 01:23:59;;;;;;;6.13;5.10;;;;;;;;;;469299;29;1120;-71
2023/09/04 01:24:14;;;;;;;7.83;5.20;;;;;;;;;;469808;29;1100;-71
2023/09/04 01:24:30;;;;;;;8.73;5.07;;;;;;;;;;470033;28;1148;-71
2023/09/04 01:24:46;;;;;;;7.00;5.00;;;;;;;;;;470344;28;980;-71
2023/09/04 01:25:01;;;;;;;6.60;5.35;;;;;;;;;;471131;28;1193;-71
2023/09/04 01:25:17;;;;;;;6.28;5.38;;;;;;;;;;470807;28;1351;-71
2023/09/04 01:25:43;;;;;;;5.83;5.07;;;;;;;;;;470030;28;1273;-72
2023/09/04 01:26:24;;;;;;;6.85;4.95;;;;;;;;;;472171;28;1190;-71
2023/09/04 01:26:50;;;;;;;7.85;5.20;;;;;;;;;;472717;29;1040;-71
2023/09/04 01:27:13;;;;;;;7.43;4.97;;;;;;;;;;474517;28;1003;-71
2023/09/04 01:27:39;;;;;;;5.78;4.75;;;;;;;;;;474479;28;986;-71
2023/09/04 01:28:40;;;;;;;8.73;5.20;;;;;;;;;;475879;28;1075;-71
2023/09/04 01:29:08;;;;;;;6.30;4.88;;;;;;;;;;480061;28;1351;-71
2023/09/04 01:29:30;;;;;;;6.28;5.03;;;;;;;;;;477981;28;1231;-71
2023/09/04 01:29:56;;;;;;;6.25;5.10;;;;;;;;;;477526;29;2092;-71
2023/09/04 01:30:33;;;;;;;6.43;5.00;;;;;;;;;;477758;29;1101;-71
2023/09/04 01:31:07;;;;;;;6.13;4.90;;;;;;;;;;479111;28;916;-71
2023/09/04 01:31:24;;;;;;;5.85;4.72;;;;;;;;;;480528;28;1157;-71
2023/09/04 01:31:53;;;;;;;6.85;4.85;;;;;;;;;;482302;28;1236;-71
2023/09/04 01:32:10;;;;;;;7.80;5.00;;;;;;;;;;481803;28;1172;-71
2023/09/04 01:32:33;;;;;;;8.57;5.00;;;;;;;;;;481753;28;1516;-72
2023/09/04 01:33:04;;;;;;;7.47;5.07;;;;;;;;;;481403;28;908;-71
2023/09/04 01:33:28;;;;;;;6.50;4.80;;;;;;;;;;478563;28;1007;-72
2023/09/04 01:33:49;;;;;;;8.10;4.95;;;;;;;;;;479909;28;968;-70
2023/09/04 01:34:15;;;;;;;7.80;5.13;;;;;;;;;;480874;28;1007;-71
2023/09/04 01:34:34;;;;;;;6.68;5.22;;;;;;;;;;480447;28;1261;-71
2023/09/04 01:34:51;;;;;;;7.40;5.25;;;;;;;;;;482102;28;1342;-71
2023/09/04 01:35:10;;;;;;;7.47;5.15;;;;;;;;;;481789;28;1600;-71
2023/09/04 01:35:30;;;;;;;6.10;5.10;;;;;;;;;;483040;28;915;-71
2023/09/04 01:35:48;;;;;;;7.38;5.25;;;;;;;;;;481471;28;1228;-71
2023/09/04 01:36:06;;;;;;;7.90;5.30;;;;;;;;;;481077;28;1157;-71
2023/09/04 01:36:24;;;;;;;6.35;5.32;;;;;;;;;;478827;28;1298;-71
2023/09/04 01:36:42;;;;;;;6.93;5.50;;;;;;;;;;477408;28;1259;-71
2023/09/04 01:37:00;;;;;;;7.13;5.35;;;;;;;;;;478262;28;1440;-71
2023/09/04 01:37:16;;;;;;;7.28;5.53;;;;;;;;;;480060;28;986;-71
2023/09/04 01:37:32;;;;;;;7.55;5.57;;;;;;;;;;479986;28;916;-71
2023/09/04 01:37:49;;;;;;;7.75;5.47;;;;;;;;;;478730;28;1352;-71
2023/09/04 01:38:04;;;;;;;8.40;5.45;;;;;;;;;;480992;28;1189;-71
2023/09/04 01:38:20;;;;;;;7.20;5.30;;;;;;;;;;480782;28;1225;-71
2023/09/04 01:38:37;;;;;;;5.93;5.13;;;;;;;;;;480640;28;935;-71
2023/09/04 01:38:53;;;;;;;6.82;5.30;;;;;;;;;;479944;28;1182;-71
2023/09/04 01:39:09;;;;;;;6.68;5.38;;;;;;;;;;476642;29;1127;-71
2023/09/04 01:39:26;;;;;;;7.18;5.13;;;;;;;;;;477695;29;1165;-71
2023/09/04 01:39:43;;;;;;;6.88;5.28;;;;;;;;;;477932;29;1146;-71
2023/09/04 01:39:58;;;;;;;6.68;5.50;;;;;;;;;;478646;29;1127;-71
2023/09/04 01:40:14;;;;;;;8.07;5.50;;;;;;;;;;481961;28;1960;-70
2023/09/04 01:40:29;;;;;;;7.43;5.43;;;;;;;;;;475646;29;1257;-70
2023/09/04 01:40:50;;;;;;;7.20;5.20;;;;;;;;;;474917;28;1045;-70
2023/09/04 01:41:06;;;;;;;7.28;5.28;;;;;;;;;;477874;28;1020;-70
2023/09/04 01:41:22;;;;;;;7.10;5.40;;;;;;;;;;475812;28;1289;-69
2023/09/04 01:41:38;;;;;;;7.88;5.43;;;;;;;;;;476641;28;1102;-70
2023/09/04 01:41:55;;;;;;;8.23;5.47;;;;;;;;;;476717;28;1228;-70
2023/09/04 01:42:11;;;;;;;8.25;5.40;;;;;;;;;;476608;28;1089;-70
2023/09/04 01:42:27;;;;;;;6.93;5.33;;;;;;;;;;478183;28;912;-70
2023/09/04 01:42:42;;;;;;;7.77;5.40;;;;;;;;;;477219;28;1288;-70
2023/09/04 01:42:57;;;;;;;8.33;5.53;;;;;;;;;;474878;28;1317;-70
2023/09/04 01:43:13;;;;;;;7.43;5.40;;;;;;;;;;473534;29;1145;-69
2023/09/04 01:43:29;;;;;;;7.53;5.20;;;;;;;;;;474505;29;963;-70
2023/09/04 01:43:44;;;;;;;7.53;5.40;;;;;;;;;;473166;29;1228;-70
2023/09/04 01:43:59;;;;;;;6.63;5.30;;;;;;;;;;472446;29;1139;-70
2023/09/04 01:44:15;;;;;;;6.20;5.18;;;;;;;;;;474457;29;1238;-70
2023/09/04 01:44:31;;;;;;;6.63;5.30;;;;;;;;;;472234;28;1082;-69
2023/09/04 01:44:46;;;;;;;7.15;5.20;;;;;;;;;;473539;28;1304;-69
2023/09/04 01:45:02;;;;;;;7.07;5.20;;;;;;;;;;474232;28;898;-70
2023/09/04 01:45:18;;;;;;;6.63;5.30;;;;;;;;;;476041;28;978;-70